Wyatt, Indiana
Current Conditions -  °F | °C
As of 9:54 AM on Thursday 30 Oct 2014 (Local Time) from KSBN Reporting Station
Overcast Overcast  
Wind Chill: 41°   Ceiling: 4000
Heat Index: 45°   Visibility: 10mi
Dew Point: 35°   Wind: 8mph
Humidity: 68%   Direction: 230°SW
Pressure: 30.16"   Gusts: NA
Location:  41.53°N, 86.17°W
Report Text: KSBN 301354Z 23007KT 10SM OVC040 07/02 A3016 RMK AO2 SLP217 T00720017
Loading
Personal Weather Stations






























Interactive Weather Map
Tropical Storm Tracking
New forecast layout! Learn more

10-Day Weather Forecast

Advertisements
Track Severe Weather on mobile